Time;durP1;ratioP1;P1;durP2;ratioP2;P2;SDS_P1;SDS_P2;PMS_P1;PMS_P2;Temp;Humidity;BMP_temperature;BMP_pressure;BME280_temperature;BME280_humidity;BME280_pressure;Samples;Min_cycle;Max_cycle;Signal;HPM_P1;HPM_P2
2023/10/06 00:11:11;;;;;;;4.28;3.08;;;;;;;23.00;49.19;101053.69;41353597;28;20035;-81
2023/10/06 00:31:13;;;;;;;5.32;3.40;;;;;;;23.33;48.88;101110.25;41356412;28;20038;-79
2023/10/06 00:51:25;;;;;;;4.55;3.13;;;;;;;23.32;49.06;101123.59;41371879;28;20420;-82
2023/10/06 01:11:26;;;;;;;4.10;3.20;;;;;;;23.29;49.11;101122.03;41384349;28;20038;-79
2023/10/06 01:31:27;;;;;;;3.78;3.05;;;;;;;23.01;48.85;101091.53;41393625;28;20129;-83
2023/10/06 01:51:27;;;;;;;3.40;2.72;;;;;;;22.99;48.80;101104.00;41371832;28;20042;-83
2023/10/06 02:11:30;;;;;;;6.03;3.30;;;;;;;22.98;48.90;101118.13;41375149;28;20039;-80
2023/10/06 02:31:31;;;;;;;3.88;2.85;;;;;;;23.12;48.85;101138.25;41370470;28;20035;-85
2023/10/06 02:51:47;;;;;;;3.20;2.60;;;;;;;22.94;48.81;101116.69;41369514;28;20030;-81
2023/10/06 03:11:49;;;;;;;3.33;2.67;;;;;;;23.09;48.65;101159.63;41362713;28;20042;-82
2023/10/06 03:31:50;;;;;;;4.43;3.13;;;;;;;22.78;48.88;101148.66;41366483;28;20085;-82
2023/10/06 03:51:51;;;;;;;3.60;2.80;;;;;;;22.99;48.43;101181.41;41359540;28;20042;-80
2023/10/06 04:11:52;;;;;;;4.20;3.10;;;;;;;22.84;48.92;101156.13;41361383;28;20622;-82
2023/10/06 04:31:52;;;;;;;4.70;3.10;;;;;;;22.84;48.76;101174.63;41382357;28;20054;-82
2023/10/06 04:51:52;;;;;;;5.03;3.22;;;;;;;22.91;48.79;101206.69;41375304;28;20046;-79
2023/10/06 05:11:53;;;;;;;4.10;3.00;;;;;;;22.87;48.62;101214.00;41379774;28;20039;-83
2023/10/06 05:31:54;;;;;;;4.13;3.05;;;;;;;22.97;48.62;101259.94;41380030;28;20046;-81
2023/10/06 05:51:54;;;;;;;8.48;2.95;;;;;;;22.99;48.74;101280.94;41363658;28;20522;-77
2023/10/06 06:11:54;;;;;;;14.38;3.95;;;;;;;23.14;49.56;101300.13;41424177;28;20057;-74
2023/10/06 06:31:55;;;;;;;23.80;4.53;;;;;;;23.14;50.05;101286.94;41397072;28;20061;-71
2023/10/06 06:51:58;;;;;;;16.17;4.85;;;;;;;23.11;50.60;101303.84;41359955;28;20046;-72
2023/10/06 07:11:59;;;;;;;21.27;6.43;;;;;;;23.03;50.36;101362.50;41373514;28;20042;-74
2023/10/06 07:32:00;;;;;;;19.90;5.55;;;;;;;23.03;49.37;101381.00;41364648;28;20046;-72
2023/10/06 07:52:04;;;;;;;18.80;5.90;;;;;;;23.05;50.37;101395.91;41368338;28;20053;-73
2023/10/06 08:12:08;;;;;;;13.55;4.00;;;;;;;21.33;42.48;101383.31;41363195;28;20105;-71
2023/10/06 08:32:08;;;;;;;9.48;4.85;;;;;;;22.80;44.88;101416.91;41353685;28;20046;-71
2023/10/06 08:52:14;;;;;;;14.60;5.10;;;;;;;22.72;46.27;101395.47;41366475;28;20041;-74
2023/10/06 09:12:26;;;;;;;14.63;5.85;;;;;;;22.88;47.36;101362.75;41368832;28;20137;-74
2023/10/06 09:32:27;;;;;;;27.70;5.97;;;;;;;23.43;48.10;101417.00;41348138;28;20092;-75
2023/10/06 09:52:33;;;;;;;32.97;7.35;;;;;;;23.32;48.25;101372.00;41376960;28;20391;-75
2023/10/06 10:12:46;;;;;;;21.95;6.35;;;;;;;22.93;46.56;101284.84;41388167;28;20093;-78
2023/10/06 10:32:52;;;;;;;16.48;5.78;;;;;;;23.58;46.63;101313.75;41397429;28;20060;-75
2023/10/06 10:52:54;;;;;;;11.88;5.25;;;;;;;23.73;46.52;101310.00;41358913;28;20038;-76
2023/10/06 11:13:15;;;;;;;10.52;5.32;;;;;;;23.95;45.75;101309.28;41352577;28;20153;-75
2023/10/06 12:01:32;;;;;;;5.63;4.03;;;;;;;24.39;44.61;101276.88;41638646;28;20419;-71
2023/10/06 12:21:32;;;;;;;10.55;4.05;;;;;;;24.69;44.69;101220.72;41798658;28;20650;-66
2023/10/06 12:41:33;;;;;;;12.75;3.53;;;;;;;24.94;42.95;101202.88;41827913;28;20045;-74
2023/10/06 13:01:33;;;;;;;20.98;4.28;;;;;;;24.77;43.85;101194.47;41691011;28;20567;-67
2023/10/06 13:21:34;;;;;;;12.98;3.90;;;;;;;24.85;44.32;101198.31;41714084;28;20037;-68
2023/10/06 13:41:41;;;;;;;12.00;4.60;;;;;;;24.65;44.87;101179.53;41707893;28;20041;-67
2023/10/06 14:01:41;;;;;;;11.20;5.03;;;;;;;24.57;45.49;101174.00;41705546;28;20036;-66
2023/10/06 14:21:42;;;;;;;9.25;5.07;;;;;;;24.81;44.85;101146.56;41706815;28;20537;-67
2023/10/06 15:01:55;;;;;;;8.35;4.85;;;;;;;24.47;45.99;101128.91;41713740;28;20515;-66
2023/10/06 15:21:56;;;;;;;7.57;5.18;;;;;;;24.18;46.30;101136.50;41708211;28;20049;-66
2023/10/06 15:41:56;;;;;;;9.43;5.40;;;;;;;24.02;46.58;101135.03;41699711;28;20075;-65
2023/10/06 16:01:59;;;;;;;6.25;4.85;;;;;;;23.80;46.74;101146.41;41695632;28;20049;-65
2023/10/06 16:22:00;;;;;;;6.68;4.18;;;;;;;23.81;47.01;101175.41;41705972;28;20497;-67
2023/10/06 16:42:01;;;;;;;4.63;4.07;;;;;;;23.71;47.11;101192.91;41718699;28;20041;-65
2023/10/06 17:02:02;;;;;;;4.63;4.03;;;;;;;23.73;47.10;101200.72;41725171;28;20068;-66
2023/10/06 17:22:02;;;;;;;4.80;3.75;;;;;;;23.49;47.28;101154.88;41719986;28;20042;-66
2023/10/06 17:42:03;;;;;;;4.35;3.50;;;;;;;23.51;47.27;101168.00;41713055;28;20041;-66
2023/10/06 18:02:05;;;;;;;4.95;3.60;;;;;;;23.49;47.24;101146.13;41708233;28;20077;-67
2023/10/06 18:22:06;;;;;;;4.72;3.42;;;;;;;23.44;47.37;101156.19;41712226;28;20044;-67
2023/10/06 18:42:07;;;;;;;5.18;3.58;;;;;;;23.38;47.20;101143.44;41692311;28;20179;-66
2023/10/06 19:02:09;;;;;;;4.63;3.42;;;;;;;23.35;47.27;101147.13;41706724;28;20073;-66
2023/10/06 19:22:10;;;;;;;3.28;2.83;;;;;;;23.22;47.20;101135.78;41697963;28;20045;-65
2023/10/06 19:42:11;;;;;;;4.03;3.42;;;;;;;23.25;46.98;101140.88;41694728;28;20041;-67
2023/10/06 20:02:12;;;;;;;4.80;3.50;;;;;;;23.24;46.82;101145.31;41704443;28;20053;-67
2023/10/06 20:22:12;;;;;;;5.90;3.75;;;;;;;23.08;47.06;101118.31;41717364;28;20041;-65
2023/10/06 20:42:13;;;;;;;5.05;3.22;;;;;;;23.15;47.00;101138.84;41724083;28;20064;-68
2023/10/06 21:02:14;;;;;;;3.83;3.20;;;;;;;23.14;46.82;101139.84;41718170;28;20045;-65
2023/10/06 21:22:14;;;;;;;3.83;3.30;;;;;;;23.10;46.90;101148.09;41714993;28;20420;-65
2023/10/06 21:42:15;;;;;;;6.00;3.50;;;;;;;23.04;46.80;101159.94;41705109;28;20133;-66
2023/10/06 22:02:15;;;;;;;4.60;3.28;;;;;;;23.01;46.83;101149.63;41709517;28;20079;-68
2023/10/06 22:22:15;;;;;;;4.50;3.38;;;;;;;23.01;46.56;101123.22;41710213;28;20168;-66
2023/10/06 22:42:16;;;;;;;5.53;3.67;;;;;;;22.96;46.58;101135.88;41695190;28;20049;-65
2023/10/06 23:02:17;;;;;;;3.70;3.30;;;;;;;22.93;46.55;101120.28;41699763;28;20493;-64
2023/10/06 23:22:19;;;;;;;4.93;3.28;;;;;;;22.89;46.44;101114.38;41695469;28;20049;-66
2023/10/06 23:42:23;;;;;;;5.43;3.58;;;;;;;22.87;46.39;101113.66;41687876;28;20050;-66
